Time,TemperatureF,DewpointF,PressureIn,WindDirection,WindDirectionDegrees,WindSpeedMPH,WindSpeedGustMPH,Humidity,HourlyPrecipIn,Conditions,Clouds,dailyrainin,SolarRadiationWatts/m^2,SoftwareType,DateUTC
2013-02-14 02:00:00,37.0,33.0,30.04,West,268,0.0,-999.0,88,-99.99,,,-99.99,0.000000,,2013-02-14 08:00:00,
2013-02-14 02:52:00,37.0,33.0,30.04,West,268,0.0,-999.0,88,-99.99,,,-99.99,0.000000,,2013-02-14 08:52:00,
2013-02-14 03:00:00,33.0,32.0,30.04,North,353,1.0,-999.0,95,-99.99,,,-99.99,0.000000,,2013-02-14 09:00:00,
2013-02-14 03:52:00,33.0,32.0,30.04,North,353,1.0,-999.0,95,-99.99,,,-99.99,0.000000,,2013-02-14 09:52:00,
2013-02-14 04:00:00,30.0,30.0,30.04,East,94,0.0,-999.0,97,-99.99,,,-99.99,0.000000,,2013-02-14 10:00:00,
2013-02-14 04:52:00,30.0,30.0,30.04,East,94,0.0,-999.0,97,-99.99,,,-99.99,0.000000,,2013-02-14 10:52:00,
2013-02-14 05:00:00,29.0,29.0,30.05,ESE,111,0.0,-999.0,99,-99.99,,,-99.99,0.000000,,2013-02-14 11:00:00,
2013-02-14 05:52:00,29.0,29.0,30.05,ESE,111,0.0,-999.0,99,-99.99,,,-99.99,0.000000,,2013-02-14 11:52:00,
2013-02-14 06:00:00,29.0,29.0,30.07,SSE,161,0.0,-999.0,99,-99.99,,,-99.99,0.000000,,2013-02-14 12:00:00,
2013-02-14 06:53:00,29.0,29.0,30.07,SSE,161,0.0,-999.0,99,-99.99,,,-99.99,0.000000,,2013-02-14 12:53:00,
2013-02-14 07:00:00,29.0,29.0,30.10,South,182,0.0,-999.0,100,-99.99,,,-99.99,4.160000,,2013-02-14 13:00:00,
2013-02-14 07:52:00,29.0,29.0,30.10,South,182,0.0,-999.0,100,-99.99,,,-99.99,4.160000,,2013-02-14 13:52:00,
2013-02-14 08:00:00,37.0,36.0,30.10,SE,142,0.0,-999.0,98,-99.99,,,-99.99,144.899994,,2013-02-14 14:00:00,
2013-02-14 08:52:00,37.0,36.0,30.10,SE,142,0.0,-999.0,98,-99.99,,,-99.99,144.899994,,2013-02-14 14:52:00,
2013-02-14 09:00:00,43.0,38.0,30.09,SW,218,1.0,-999.0,81,-99.99,,,-99.99,327.399994,,2013-02-14 15:00:00,
2013-02-14 09:52:00,43.0,38.0,30.09,SW,218,1.0,-999.0,81,-99.99,,,-99.99,327.399994,,2013-02-14 15:52:00,
2013-02-14 10:00:00,47.0,38.0,30.10,WSW,258,3.0,-999.0,69,-99.99,,,-99.99,491.700012,,2013-02-14 16:00:00,
2013-02-14 10:52:00,47.0,38.0,30.10,WSW,258,3.0,-999.0,69,-99.99,,,-99.99,491.700012,,2013-02-14 16:52:00,
2013-02-14 12:00:00,54.0,37.0,30.08,SW,219,3.0,-999.0,51,-99.99,,,-99.99,682.400024,,2013-02-14 18:00:00,
2013-02-14 12:52:00,54.0,37.0,30.08,SW,219,3.0,-999.0,51,-99.99,,,-99.99,682.400024,,2013-02-14 18:52:00,
2013-02-14 13:00:00,56.0,36.0,30.07,SW,220,4.0,-999.0,48,-99.99,,,-99.99,691.700012,,2013-02-14 19:00:00,
2013-02-14 13:52:00,56.0,36.0,30.07,SW,220,4.0,-999.0,48,-99.99,,,-99.99,691.700012,,2013-02-14 19:52:00,
2013-02-14 14:00:00,58.0,37.0,30.06,South,188,4.0,-999.0,46,-99.99,,,-99.99,628.200012,,2013-02-14 20:00:00,
2013-02-14 14:52:00,58.0,37.0,30.06,South,188,4.0,-999.0,46,-99.99,,,-99.99,628.200012,,2013-02-14 20:52:00,
2013-02-14 15:00:00,59.0,37.0,30.06,South,185,5.0,-999.0,44,-99.99,,,-99.99,514.599976,,2013-02-14 21:00:00,
2013-02-14 15:52:00,59.0,37.0,30.06,South,185,5.0,-999.0,44,-99.99,,,-99.99,514.599976,,2013-02-14 21:52:00,
2013-02-14 17:00:00,55.0,37.0,30.05,South,176,3.0,-999.0,50,-99.99,,,-99.99,135.100006,,2013-02-14 23:00:00,
2013-02-14 17:52:00,55.0,37.0,30.05,South,176,3.0,-999.0,50,-99.99,,,-99.99,135.100006,,2013-02-14 23:52:00,
2013-02-14 23:00:00,34.0,33.0,30.06,SE,144,0.0,-999.0,97,-99.99,,,-99.99,0.000000,,2013-02-15 05:00:00,
2013-02-14 23:52:00,34.0,33.0,30.06,SE,144,0.0,-999.0,97,-99.99,,,-99.99,0.000000,,2013-02-15 05:52:00,